Tiempo atmosférico en la estación meteorológica de Cabrales, Asturias (458 m.)



Fecha
DESCASC
Temp. máxima en grados centígrados (hora)
DESCASC
Temp. mínima en grados centígrados (hora)
DESCASC
Temp. media en grados centígrados
DESCASC
Racha de viento máxima en m/sg (hora)
DESCASC
Velocidad máxima media en intervalos de 10 minutos(hora)
DESCASC
Precipitaciones diarias en mm
DESCASC
Precipitaciones de 00:00 a 06:00 en mm
DESCASC
Precipitaciones de 06:00 a 12:00 en mm
DESCASC
Precipitaciones de 12:00 a 18:00 en mm
DESCASC
Precipitaciones de 18:00 a 24:00 en mm
DESCASC
13-10-2019 24.2 (12:50) 14.3 (23:59) 19.3 30 (08:40) 16.67 (09:00) 0 0 0 0 0
12-10-2019 23.5 (17:10) 13 (09:00) 18.3 12.22 (10:40) 5.83 (18:10) 0.2 0 0 0 0.2
11-10-2019 25.4 (14:10) 10.9 (04:50) 18.1 5.83 (16:10) 3.33 (17:00) 0 0 0 0 0
10-10-2019 20.9 (15:50) 8.3 (00:00) 14.6 8.06 (19:10) 4.72 (19:10) 0 0 0 0 0
09-10-2019 18.1 (16:10) 10.7 (00:00) 14.4 11.39 (14:10) 7.5 (14:00) 0.2 0.2 0 0 0
08-10-2019 23.6 (14:10) 12.1 (00:00) 17.9 11.67 (15:40) 8.61 (16:20) 1.2 0 0 0.4 0.8
07-10-2019 23.2 (16:50) 10.4 (00:00) 16.8 5.56 (16:30) 3.61 (15:40) 0.2 0.2 0 0 0
06-10-2019 16.9 (16:20) 12.8 (00:00) 14.8 8.89 (12:00) 5.83 (12:40) 0.2 0 0.2 0 0
05-10-2019 18.5 (13:20) 12.4 (00:00) 15.4 8.06 (22:30) 5.28 (22:30) 0 0 0 0 0
04-10-2019 16.3 (13:00) 13 (00:00) 14.6 7.78 (16:00) 5.28 (16:00) 1.4 0 1.4 0 0
03-10-2019 22.3 (15:50) 10.6 (00:00) 16.4 10 (13:00) 6.67 (13:00) 0 0 0 0 0
02-10-2019 19.9 (17:10) 11.6 (00:00) 15.8 11.39 (06:00) 8.33 (06:00) 0.2 0 0 0 0.2
01-10-2019 22.2 (15:10) 14.2 (00:00) 18.2 10.83 (13:40) 7.5 (12:20) 0 0 0 0 0
30-09-2019 26.4 (17:30) 13.9 (00:00) 20.1 5.83 (18:20) 4.44 (18:20) 0 0 0 0 0
29-09-2019 26 (13:30) 12.3 (00:00) 19.2 7.5 (14:30) 5 (16:20) 0 0 0 0 0
28-09-2019 22.5 (16:00) 13 (00:00) 17.8 5 (20:00) 4.44 (20:00) 0 0 0 0 0
27-09-2019 23.3 (14:10) 12.7 (00:00) 18 9.44 (16:00) 6.67 (15:40) 0.8 0 0 0 0.8
26-09-2019 23.1 (17:20) 11.9 (00:00) 17.5 5 (19:30) 3.61 (19:50) 0.2 0 0.2 0 0
25-09-2019 20.2 (15:10) 11.9 (00:00) 16.1 8.61 (12:20) 5 (12:20) 0 0 0 0 0
24-09-2019 22.3 (04:00) 13.3 (00:00) 17.8 15.56 (03:50) 6.94 (03:50) 4.6 0.2 0.4 1.6 2.4
23-09-2019 21.4 (14:10) 11.5 (00:00) 16.4 7.22 (21:30) 5.28 (22:50) 0.8 0 0.2 0 0.6
22-09-2019 21.2 (14:00) 12.2 (00:00) 16.7 8.89 (01:30) 6.67 (00:10) 3.2 3 0.2 0 0
21-09-2019 24.7 (16:50) 14.8 (00:00) 19.8 21.39 (14:30) 12.78 (14:30) 0.2 0 0.2 0 0
20-09-2019 27.5 (15:20) 13.6 (00:00) 20.6 7.5 (20:10) 5.83 (20:30) 2.2 0 0.2 2 0
19-09-2019 23.9 (14:50) 14.1 (00:00) 19 6.39 (20:10) 4.17 (21:00) 0.2 0.2 0 0 0
18-09-2019 24.4 (14:30) 16.5 (00:00) 20.4 6.11 (15:40) 4.17 (15:50) 0.2 0 0.2 0 0
17-09-2019 27 (15:10) 16.4 (00:00) 21.7 6.67 (16:50) 4.17 (16:50) 0 0 0 0 0
16-09-2019 24 (14:10) 15.3 (00:00) 19.7 5.56 (15:50) 3.61 (15:50) 0.2 0 0.2 0 0
15-09-2019 25 (16:20) 15.6 (00:00) 20.3 12.5 (17:30) 8.33 (17:30) 0 0 0 0 0

Gráficas

Temp. máximas Temp. mínimas Temp. medias Precipitaciones Rachas de viento máximas Velocidades máximas media en intervalos de 10 minutos

Datos horarios

Fecha y hora oficial Temperatura (ºC) Velocidad del viento (km/h) Dirección del viento Racha (km/h) Dirección de racha Precipitación (mm) Presión (hPa) Tendencia (hPa) Humedad (%)
2019-10-14 23:00:00 8.9 15 Noroeste 26 Norte 0 -- -- 87
2019-10-14 22:00:00 8.7 16 Norte 27 Norte 0 -- -- 91
2019-10-14 21:00:00 9.5 21 Noroeste 39 Noroeste 0 -- -- 91
2019-10-14 20:00:00 9.4 19 Noroeste 29 Noroeste 0.2 -- -- 90
2019-10-14 19:00:00 9.2 13 Norte 33 Noroeste 0.2 -- -- 96
2019-10-14 18:00:00 9.7 17 Noroeste 54 Noroeste 3.2 -- -- 95
2019-10-14 17:00:00 13.6 10 Oeste 32 Oeste 0 -- -- 89
2019-10-14 16:00:00 14 9 Oeste 28 Oeste 0 -- -- 90
2019-10-14 15:00:00 13.9 8 Noroeste 28 Oeste 0.2 -- -- 94
2019-10-14 14:00:00 14.8 9 Oeste 12 Oeste 0 -- -- 88
2019-10-14 13:00:00 14.6 5 Oeste 13 Sudeste 0 -- -- 99
2019-10-14 12:00:00 11 6 Sur 24 Sudeste 1 -- -- 100
2019-10-14 11:00:00 10.6 3 Sudoeste 9 Sudoeste 2 -- -- 100
2019-10-14 10:00:00 10.4 7 Oeste 14 Oeste 3 -- -- 99
2019-10-14 09:00:00 10.9 2 Sudeste 11 Este 0.4 -- -- 100
2019-10-14 08:00:00 11.1 7 Sudoeste 23 Noroeste 0 -- -- 100
2019-10-14 07:00:00 11 18 Noroeste 32 Noroeste 0.4 -- -- 100
2019-10-14 06:00:00 12 23 Noroeste 42 Noroeste 0 -- -- 100
2019-10-14 05:00:00 13.1 30 Noroeste 42 Oeste 0 -- -- 100
2019-10-14 04:00:00 13.5 18 Oeste 37 Oeste 0 -- -- 100
2019-10-14 03:00:00 13.9 13 Oeste 27 Nordeste 0 -- -- 94
2019-10-14 02:00:00 13.5 5 Oeste 18 Este 0 -- -- 99
2019-10-14 01:00:00 13.9 3 Noroeste 20 Este 0 -- -- 99
2019-10-14 00:00:00 14.3 5 Sur 27 Este 0 -- -- 98
2019-10-13 23:00:00 14.6 7 Noroeste 17 Sudoeste 0 -- -- 98
2019-10-13 22:00:00 14.9 3 Este 13 Nordeste 0 -- -- 97
2019-10-13 21:00:00 15.2 9 Este 17 Este 0 -- -- 94
2019-10-13 20:00:00 15.7 5 Sudeste 16 Este 0 -- -- 93
2019-10-13 19:00:00 17 12 Sudeste 31 Este 0 -- -- 88
2019-10-13 18:00:00 17.5 13 Sudeste 26 Este 0 -- -- 86
2019-10-13 17:00:00 17.5 9 Nordeste 27 Este 0 -- -- 86
2019-10-13 16:00:00 17.8 18 Sudoeste 28 Sudoeste 0 -- -- 82
2019-10-13 15:00:00 19.7 12 Oeste 42 Oeste 0 -- -- 72
2019-10-13 14:00:00 22.2 24 Sudoeste 50 Sudoeste 0 -- -- 50
2019-10-13 13:00:00 23.9 9 Norte 49 Oeste 0 -- -- 54
2019-10-13 12:00:00 23.2 19 Sudoeste 44 Sudoeste 0 -- -- 48
2019-10-13 11:00:00 20.9 30 Sudoeste 71 Sudoeste 0 -- -- 48
2019-10-13 10:00:00 21.3 42 Sudoeste 95 Sudoeste 0 -- -- 42
2019-10-13 09:00:00 21.5 60 Sudoeste 108 Sudoeste 0 -- -- 37
2019-10-13 08:00:00 21.6 43 Sudoeste 102 Sudoeste 0 -- -- 40
2019-10-13 07:00:00 21.5 19 Noroeste 55 Nordeste 0 -- -- 45
2019-10-13 06:00:00 21.4 23 Sur 91 Sudoeste 0 -- -- 47
2019-10-13 05:00:00 22.2 23 Sudoeste 69 Sur 0 -- -- 44
2019-10-13 04:00:00 21.7 16 Este 66 Oeste 0 -- -- 45
2019-10-13 03:00:00 20.4 22 Norte 72 Oeste 0 -- -- 55
2019-10-13 02:00:00 17.8 15 Noroeste 31 Noroeste 0 -- -- 69
2019-10-13 01:00:00 15.8 15 Noroeste 37 Este 0 -- -- 93
2019-10-13 00:00:00 14.8 10 Nordeste 23 Este 0 -- -- 100
2019-10-12 23:00:00 15.1 14 Sudeste 20 Sudoeste 0.2 -- -- 100
2019-10-12 22:00:00 15.1 7 Sur 20 Sudoeste 0 -- -- 100
2019-10-12 21:00:00 15.3 10 Oeste 27 Sudeste 0 -- -- 99
2019-10-12 20:00:00 15.8 15 Oeste 26 Oeste 0 -- -- 97
2019-10-12 19:00:00 17.4 15 Oeste 32 Oeste 0 -- -- 89
2019-10-12 18:00:00 20.6 18 Oeste 39 Oeste 0 -- -- 77
2019-10-12 17:00:00 23.3 8 Este 22 Sudeste 0 -- -- 67
2019-10-12 16:00:00 22.3 10 Sur 23 Sudeste 0 -- -- 72
2019-10-12 15:00:00 22.2 9 Sudoeste 21 Oeste 0 -- -- 71
2019-10-12 14:00:00 21 13 Oeste 33 Oeste 0 -- -- 71
2019-10-12 13:00:00 20.6 10 Oeste 30 Sudoeste 0 -- -- 75
2019-10-12 12:00:00 17 16 Oeste 28 Sudoeste 0 -- -- 86
2019-10-12 11:00:00 15.8 10 Oeste 44 Sur 0 -- -- 86
2019-10-12 10:00:00 13.2 8 Oeste 21 Oeste 0 -- -- 100
2019-10-12 09:00:00 13 11 Oeste 24 Sudoeste 0 -- -- 100
2019-10-12 08:00:00 13.4 6 Oeste 12 Este 0 -- -- 100
2019-10-12 07:00:00 13.4 0 Calma 10 Noroeste 0 -- -- 100
2019-10-12 06:00:00 13.5 4 Oeste 7 Oeste 0 -- -- 100
2019-10-12 05:00:00 13.5 3 Sudoeste 9 Oeste 0 -- -- 100
2019-10-12 04:00:00 13.6 4 Oeste 12 Oeste 0 -- -- 100
2019-10-12 03:00:00 13.8 2 Oeste 10 Noroeste 0 -- -- 100
2019-10-12 02:00:00 14.1 3 Noroeste 6 Norte 0 -- -- 100
2019-10-12 01:00:00 14.2 3 Sudeste 14 Este 0 -- -- 100
2019-10-12 00:00:00 14.1 4 Sudeste 6 Sudeste 0 -- -- 100
2019-10-11 23:00:00 14.2 2 Oeste 16 Oeste 0 -- -- 99
2019-10-11 22:00:00 14.5 9 Oeste 15 Noroeste 0 -- -- 97
2019-10-11 21:00:00 15.2 10 Oeste 17 Sudoeste 0 -- -- 94
2019-10-11 20:00:00 16.8 10 Oeste 17 Oeste 0 -- -- 87
2019-10-11 19:00:00 20.7 6 Sur 15 Sudeste 0 -- -- 63
2019-10-11 18:00:00 22.9 9 Sudeste 18 Sur 0 -- -- 58
2019-10-11 17:00:00 24.5 12 Sur 21 Este 0 -- -- 52
2019-10-11 16:00:00 25.3 8 Sur 18 Sudeste 0 -- -- 48
2019-10-11 15:00:00 25.1 8 Sudeste 15 Sudeste 0 -- -- 48
2019-10-11 14:00:00 25.2 6 Sudeste 12 Sur 0 -- -- 46
2019-10-11 13:00:00 22.9 3 Oeste 9 Sudoeste 0 -- -- 51
2019-10-11 12:00:00 20.2 5 Sudoeste 11 Sudoeste 0 -- -- 60
2019-10-11 11:00:00 15.6 3 Sur 9 Sudoeste 0 -- -- 76
2019-10-11 10:00:00 13.3 5 Este 10 Nordeste 0 -- -- 78
2019-10-11 09:00:00 11.8 4 Este 8 Este 0 -- -- 82
2019-10-11 08:00:00 11.6 2 Nordeste 6 Este 0 -- -- 87
2019-10-11 07:00:00 11.7 2 Norte 5 Oeste 0 -- -- 90
2019-10-11 06:00:00 11.3 5 Sudoeste 10 Oeste 0 -- -- 99
2019-10-11 05:00:00 10.9 4 Sudoeste 6 Oeste 0 -- -- 100
2019-10-11 04:00:00 11.1 2 Oeste 5 Sudeste 0 -- -- 100
2019-10-11 03:00:00 11.1 3 Este 7 Oeste 0 -- -- 100
2019-10-11 02:00:00 11.3 4 Sudoeste 4 Sudoeste 0 -- -- 100
2019-10-11 01:00:00 11.6 0 Calma 3 Oeste 0 -- -- 100
2019-10-11 00:00:00 11.8 0 Calma 3 Sur 0 -- -- 99
2019-10-10 23:00:00 12 0 Calma 8 Sudeste 0 -- -- 98
2019-10-10 22:00:00 12.2 6 Sudeste 15 Este 0 -- -- 97
2019-10-10 21:00:00 12.8 10 Sudeste 23 Este 0 -- -- 94
2019-10-10 20:00:00 13.9 13 Sudeste 29 Sudeste 0 -- -- 89
2019-10-10 19:00:00 16.5 14 Sudeste 25 Sudeste 0 -- -- 80
2019-10-10 18:00:00 18.6 14 Sudeste 24 Este 0 -- -- 72
2019-10-10 17:00:00 19.8 11 Este 19 Este 0 -- -- 67
2019-10-10 16:00:00 20.7 9 Sur 18 Sur 0 -- -- 61
2019-10-10 15:00:00 20.1 5 Sudoeste 12 Sudeste 0 -- -- 60
2019-10-10 14:00:00 20.2 6 Sudeste 14 Este 0 -- -- 58
2019-10-10 13:00:00 18.8 6 Sudeste 10 Sudeste 0 -- -- 64
2019-10-10 12:00:00 15.2 3 Sudeste 10 Sur 0 -- -- 80
2019-10-10 11:00:00 11.5 4 Sudeste 14 Sur 0 -- -- 99
2019-10-10 10:00:00 9.2 3 Sudoeste 6 Sudeste 0 -- -- 100
2019-10-10 09:00:00 8.3 3 Este 7 Sudeste 0 -- -- 100
2019-10-10 08:00:00 8.6 2 Este 5 Este 0 -- -- 100
2019-10-10 07:00:00 9 0 Calma 3 Este 0 -- -- 100
2019-10-10 06:00:00 9.3 2 Nordeste 4 Este 0 -- -- 99
2019-10-10 05:00:00 9.9 0 Calma 6 Oeste 0 -- -- 98
2019-10-10 04:00:00 10.3 0 Calma 5 Sudoeste 0 -- -- 97
2019-10-10 03:00:00 10.8 3 Oeste 5 Oeste 0 -- -- 95
2019-10-10 02:00:00 11.4 3 Oeste 8 Sudoeste 0 -- -- 94
2019-10-10 01:00:00 11.6 4 Oeste 6 Oeste 0 -- -- 94
2019-10-10 00:00:00 12.2 3 Oeste 6 Noroeste 0 -- -- 92
2019-10-09 23:00:00 12.3 3 Noroeste 10 Noroeste 0 -- -- 92
2019-10-09 22:00:00 12.4 7 Oeste 10 Noroeste 0 -- -- 91
2019-10-09 21:00:00 12.7 5 Oeste 16 Noroeste 0 -- -- 89
2019-10-09 20:00:00 13.2 11 Oeste 18 Noroeste 0 -- -- 88
2019-10-09 19:00:00 14.5 13 Noroeste 19 Noroeste 0 -- -- 81
2019-10-09 18:00:00 14.7 15 Noroeste 27 Noroeste 0 -- -- 78
2019-10-09 17:00:00 16.1 14 Noroeste 33 Norte 0 -- -- 69
2019-10-09 16:00:00 18 19 Noroeste 30 Noroeste 0 -- -- 58
2019-10-09 15:00:00 16.9 23 Noroeste 41 Oeste 0 -- -- 58
2019-10-09 14:00:00 16.6 27 Oeste 39 Noroeste 0 -- -- 66
2019-10-09 13:00:00 15.5 27 Noroeste 39 Noroeste 0 -- -- 74
2019-10-09 12:00:00 15.2 21 Norte 37 Noroeste 0 -- -- 76
2019-10-09 11:00:00 13.3 15 Noroeste 24 Noroeste 0 -- -- 85
2019-10-09 10:00:00 11.5 6 Norte 14 Norte 0 -- -- 90
2019-10-09 09:00:00 10.9 9 Noroeste 24 Noroeste 0 -- -- 95
2019-10-09 08:00:00 10.8 19 Oeste 24 Noroeste 0 -- -- 97
2019-10-09 07:00:00 11.2 10 Noroeste 21 Oeste 0 -- -- 99
2019-10-09 06:00:00 11.3 6 Norte 10 Noroeste 0 -- -- 100
2019-10-09 05:00:00 11.5 6 Noroeste 21 Noroeste 0 -- -- 100
2019-10-09 04:00:00 11.8 16 Noroeste 30 Oeste 0 -- -- 96
2019-10-09 03:00:00 11.4 15 Oeste 26 Oeste 0.2 -- -- 100
2019-10-09 02:00:00 11.5 9 Noroeste 15 Noroeste 0 -- -- 100
2019-10-09 01:00:00 11.4 8 Oeste 29 Noroeste 0 -- -- 100
2019-10-09 00:00:00 12.1 15 Noroeste 24 Noroeste 0.4 -- -- 100
2019-10-08 23:00:00 12.6 13 Noroeste 19 Noroeste 0.2 -- -- 100
2019-10-08 22:00:00 13 8 Noroeste 13 Noroeste 0.2 -- -- 100
2019-10-08 21:00:00 13.1 8 Noroeste 13 Noroeste 0 -- -- 100
2019-10-08 20:00:00 13.3 9 Noroeste 23 Noroeste 0 -- -- 100
2019-10-08 19:00:00 13.4 19 Noroeste 30 Noroeste 0 -- -- 100
2019-10-08 18:00:00 14.5 13 Noroeste 32 Noroeste 0 -- -- 99
2019-10-08 17:00:00 15.3 20 Noroeste 41 Noroeste 0.4 -- -- 99
2019-10-08 16:00:00 16.2 29 Norte 42 Norte 0 -- -- 96
2019-10-08 15:00:00 20.2 23 Norte 38 Noroeste 0 -- -- 82
2019-10-08 14:00:00 23 28 Noroeste 40 Noroeste 0 -- -- 68
2019-10-08 13:00:00 22.8 3 Este 9 Sudeste 0 -- -- 71
2019-10-08 12:00:00 21.2 6 Sudeste 9 Sur 0 -- -- 76
2019-10-08 11:00:00 17.2 2 Sudeste 5 Nordeste 0 -- -- 89
2019-10-08 10:00:00 14.9 3 Sudoeste 5 Sudoeste 0 -- -- 85
2019-10-08 09:00:00 13.5 4 Sudoeste 5 Sudoeste 0 -- -- 88
2019-10-08 08:00:00 13 0 Calma 5 Este 0 -- -- 91
2019-10-08 07:00:00 13.1 0 Calma 6 Sudeste 0 -- -- 90
2019-10-08 06:00:00 13.2 0 Calma 6 Sudeste 0 -- -- 89
2019-10-08 05:00:00 13.2 4 Sudeste 6 Este 0 -- -- 88
2019-10-08 04:00:00 13.6 0 Calma 6 Este 0 -- -- 88
2019-10-08 03:00:00 13.5 4 Este 6 Este 0 -- -- 88
2019-10-08 02:00:00 13.9 4 Este 4 Nordeste 0 -- -- 89
2019-10-08 01:00:00 14.3 0 Calma 3 Sudoeste 0 -- -- 88
2019-10-08 00:00:00 14.6 2 Sudeste 6 Sudeste 0 -- -- 88
2019-10-07 23:00:00 15.4 0 Calma 4 Oeste 0 -- -- 81
2019-10-07 22:00:00 15.7 0 Calma 6 Sudeste 0 -- -- 83
2019-10-07 21:00:00 16.5 8 Sudeste 9 Sudeste 0 -- -- 80
2019-10-07 20:00:00 17.9 4 Sur 12 Sur 0 -- -- 74
2019-10-07 19:00:00 20.9 5 Sur 13 Oeste 0 -- -- 66
2019-10-07 18:00:00 22.5 10 Oeste 17 Oeste 0 -- -- 61
2019-10-07 17:00:00 23.2 12 Oeste 20 Oeste 0 -- -- 51
2019-10-07 16:00:00 22.9 10 Oeste 19 Oeste 0 -- -- 57
2019-10-07 15:00:00 22.6 5 Oeste 15 Noroeste 0 -- -- 54
2019-10-07 14:00:00 21.9 3 Sudoeste 11 Oeste 0 -- -- 58
2019-10-07 13:00:00 20 3 Norte 8 Noroeste 0 -- -- 63
2019-10-07 12:00:00 18 3 Oeste 5 Oeste 0 -- -- 76
2019-10-07 11:00:00 13.9 3 Sudoeste 5 Sudoeste 0 -- -- 94
2019-10-07 10:00:00 11 4 Sudoeste 5 Sudoeste 0 -- -- 100
2019-10-07 09:00:00 10.7 0 Calma 6 Sudoeste 0 -- -- 100
2019-10-07 08:00:00 10.9 5 Oeste 5 Oeste 0 -- -- 100
2019-10-07 07:00:00 10.4 0 Calma 5 Este 0 -- -- 100
2019-10-07 06:00:00 10.9 0 Calma 6 Sudeste 0.2 -- -- 100
2019-10-07 05:00:00 11.4 3 Nordeste 6 Este 0 -- -- 100
2019-10-07 04:00:00 12.1 0 Calma 7 Sudeste 0 -- -- 100
2019-10-07 03:00:00 12.4 7 Sudeste 12 Este 0 -- -- 100
2019-10-07 02:00:00 12.8 5 Sudeste 6 Este 0 -- -- 100
2019-10-07 01:00:00 13.4 3 Sur 6 Sudeste 0 -- -- 100
2019-10-07 00:00:00 13.6 0 Calma 4 Oeste 0 -- -- 100
2019-10-06 23:00:00 13.5 4 Oeste 6 Sudoeste 0 -- -- 99
2019-10-06 22:00:00 13.6 5 Oeste 14 Sudoeste 0 -- -- 100
2019-10-06 21:00:00 13.7 11 Sudoeste 20 Oeste 0 -- -- 99
2019-10-06 20:00:00 14.1 14 Oeste 23 Sudoeste 0 -- -- 98
2019-10-06 19:00:00 14.8 15 Sudoeste 23 Oeste 0 -- -- 95
2019-10-06 18:00:00 15.6 14 Sudoeste 18 Oeste 0 -- -- 92
2019-10-06 17:00:00 16.6 9 Noroeste 25 Norte 0 -- -- 90
2019-10-06 16:00:00 16.7 13 Noroeste 31 Noroeste 0 -- -- 90
2019-10-06 15:00:00 16 15 Noroeste 24 Oeste 0 -- -- 100
2019-10-06 14:00:00 15 16 Oeste 29 Oeste 0 -- -- 97
2019-10-06 13:00:00 15.2 19 Oeste 30 Oeste 0 -- -- 99
2019-10-06 12:00:00 15.3 17 Noroeste 32 Noroeste 0 -- -- 100
2019-10-06 11:00:00 14.6 6 Noroeste 18 Noroeste 0.2 -- -- 100
2019-10-06 10:00:00 13.8 10 Noroeste 16 Noroeste 0 -- -- 100
2019-10-06 09:00:00 13.3 4 Oeste 6 Norte 0 -- -- 100
2019-10-06 08:00:00 13.2 5 Noroeste 12 Noroeste 0 -- -- 99
2019-10-06 07:00:00 13.3 6 Norte 24 Oeste 0 -- -- 98
2019-10-06 06:00:00 13.4 7 Oeste 10 Oeste 0 -- -- 99
2019-10-06 05:00:00 13.1 4 Sudoeste 5 Sudoeste 0 -- -- 99
2019-10-06 04:00:00 13.4 0 Calma 10 Noroeste 0 -- -- 100
2019-10-06 03:00:00 13.1 8 Sudoeste 13 Oeste 0 -- -- 100
2019-10-06 02:00:00 12.9 6 Noroeste 10 Oeste 0 -- -- 100
2019-10-06 01:00:00 12.9 6 Oeste 10 Sudeste 0 -- -- 100
2019-10-06 00:00:00 13.2 8 Oeste 13 Oeste 0 -- -- 98
2019-10-05 23:00:00 13.9 3 Oeste 29 Noroeste 0 -- -- 96
2019-10-05 22:00:00 13.5 7 Este 20 Este 0 -- -- 99
2019-10-05 21:00:00 14.2 2 Este 8 Sudoeste 0 -- -- 95
2019-10-05 20:00:00 14.4 7 Sudoeste 12 Sudoeste 0 -- -- 95
2019-10-05 19:00:00 14.8 10 Oeste 15 Oeste 0 -- -- 93
2019-10-05 18:00:00 15.7 6 Oeste 15 Oeste 0 -- -- 90
2019-10-05 17:00:00 15.9 9 Oeste 17 Noroeste 0 -- -- 88
2019-10-05 16:00:00 16.7 7 Oeste 10 Oeste 0 -- -- 84
2019-10-05 15:00:00 16.4 10 Noroeste 19 Oeste 0 -- -- 86
2019-10-05 14:00:00 17.9 5 Norte 10 Noroeste 0 -- -- 79
2019-10-05 13:00:00 18.1 5 Sur 18 Este 0 -- -- 77
2019-10-05 12:00:00 16.5 7 Este 14 Este 0 -- -- 90
2019-10-05 11:00:00 14.1 4 Nordeste 7 Nordeste 0 -- -- 99
2019-10-05 10:00:00 13.5 0 Calma 5 Sudoeste 0 -- -- 100
2019-10-05 09:00:00 12.6 0 Calma 5 Sudoeste 0 -- -- 100
2019-10-05 08:00:00 12.4 4 Sudeste 5 Sudeste 0 -- -- 100
2019-10-05 07:00:00 12.6 3 Sudeste 6 Sudoeste 0 -- -- 100
2019-10-05 06:00:00 12.7 0 Calma 4 Sudeste 0 -- -- 100
2019-10-05 05:00:00 12.7 3 Sudeste 6 Sudeste 0 -- -- 100
2019-10-05 04:00:00 12.8 2 Este 4 Sudoeste 0 -- -- 100
2019-10-05 03:00:00 12.9 2 Oeste 5 Oeste 0 -- -- 100
2019-10-05 02:00:00 13 0 Calma 4 Sur 0 -- -- 99
2019-10-05 01:00:00 13 4 Sudeste 9 Sudeste 0 -- -- 98
2019-10-05 00:00:00 13.1 6 Sudeste 8 Sudeste 0 -- -- 98
2019-10-04 23:00:00 13.2 3 Oeste 8 Oeste 0 -- -- 96
2019-10-04 22:00:00 13.1 5 Oeste 14 Oeste 0 -- -- 97
2019-10-04 21:00:00 13 14 Sudoeste 21 Sudoeste 0 -- -- 97
2019-10-04 20:00:00 13.7 10 Noroeste 14 Noroeste 0 -- -- 98
2019-10-04 19:00:00 14.4 12 Noroeste 15 Noroeste 0 -- -- 95
2019-10-04 18:00:00 15.2 10 Noroeste 19 Noroeste 0 -- -- 92
2019-10-04 17:00:00 15.4 13 Noroeste 23 Oeste 0 -- -- 94
2019-10-04 16:00:00 15.2 19 Oeste 28 Oeste 0 -- -- 92
2019-10-04 15:00:00 15.8 17 Oeste 25 Oeste 0 -- -- 96
2019-10-04 14:00:00 15.5 13 Oeste 19 Oeste 0 -- -- 99
2019-10-04 13:00:00 16.3 8 Noroeste 20 Oeste 0 -- -- 100
2019-10-04 12:00:00 14.8 15 Oeste 21 Oeste 0.2 -- -- 100
2019-10-04 11:00:00 15.3 7 Noroeste 18 Noroeste 0 -- -- 100
2019-10-04 10:00:00 14.8 8 Noroeste 12 Noroeste 0.4 -- -- 100
2019-10-04 09:00:00 14.4 6 Oeste 10 Oeste 0.4 -- -- 100
2019-10-04 08:00:00 14.6 7 Oeste 12 Oeste 0.2 -- -- 100
2019-10-04 07:00:00 14.9 6 Oeste 13 Noroeste 0.2 -- -- 99
2019-10-04 06:00:00 15.5 3 Norte 20 Oeste 0 -- -- 95
2019-10-04 05:00:00 15.6 16 Oeste 23 Oeste 0 -- -- 94
2019-10-04 04:00:00 15.4 0 Calma 7 Sudeste 0 -- -- 89
2019-10-04 03:00:00 15.3 0 Calma 9 Oeste 0 -- -- 89
2019-10-04 02:00:00 15.5 3 Nordeste 12 Sudoeste 0 -- -- 86
2019-10-04 01:00:00 15.3 3 Oeste 11 Sudeste 0 -- -- 87
2019-10-04 00:00:00 15.6 3 Sudoeste 8 Sudeste 0 -- -- 85
2019-10-03 23:00:00 15.8 4 Sudeste 8 Sudeste 0 -- -- 84
2019-10-03 22:00:00 16.4 2 Noroeste 5 Sudoeste 0 -- -- 80
2019-10-03 21:00:00 16.6 3 Sudeste 13 Sudeste 0 -- -- 78
2019-10-03 20:00:00 18.8 6 Sudeste 8 Sur 0 -- -- 70
2019-10-03 19:00:00 21 5 Noroeste 25 Noroeste 0 -- -- 66
2019-10-03 18:00:00 21 14 Norte 30 Noroeste 0 -- -- 64
2019-10-03 17:00:00 21.6 17 Noroeste 27 Noroeste 0 -- -- 57
2019-10-03 16:00:00 22 15 Noroeste 23 Noroeste 0 -- -- 58
2019-10-03 15:00:00 21.6 15 Noroeste 22 Noroeste 0 -- -- 61
2019-10-03 14:00:00 20.1 8 Norte 35 Oeste 0 -- -- 66
2019-10-03 13:00:00 18.7 24 Oeste 36 Oeste 0 -- -- 66
2019-10-03 12:00:00 17.6 6 Oeste 14 Oeste 0 -- -- 78
2019-10-03 11:00:00 13.7 4 Sudoeste 5 Sudoeste 0 -- -- 100
2019-10-03 10:00:00 11.5 0 Calma 3 Noroeste 0 -- -- 100
2019-10-03 09:00:00 10.9 0 Calma 6 Sudoeste 0 -- -- 100
2019-10-03 08:00:00 11.1 2 Sur 12 Oeste 0 -- -- 100
2019-10-03 07:00:00 11.1 7 Oeste 10 Oeste 0 -- -- 100
2019-10-03 06:00:00 11.4 0 Calma 4 Nordeste 0 -- -- 100
2019-10-03 05:00:00 11.4 0 Calma 6 Nordeste 0 -- -- 99
2019-10-03 04:00:00 11.9 3 Nordeste 6 Sudeste 0 -- -- 98
2019-10-03 03:00:00 12.4 4 Sur 15 Sudeste 0 -- -- 98
2019-10-03 02:00:00 13 10 Sudeste 14 Sudeste 0 -- -- 97
2019-10-03 01:00:00 13.4 9 Sudeste 14 Sudeste 0 -- -- 97
2019-10-03 00:00:00 13.7 6 Sudeste 9 Sudeste 0 -- -- 97
2019-10-02 23:00:00 13.8 3 Oeste 10 Sudoeste 0 -- -- 97
2019-10-02 22:00:00 13.8 6 Oeste 18 Sudoeste 0 -- -- 96
2019-10-02 21:00:00 14 12 Oeste 21 Oeste 0 -- -- 94
2019-10-02 20:00:00 14.4 14 Oeste 19 Oeste 0.2 -- -- 92
2019-10-02 19:00:00 15.2 9 Oeste 22 Noroeste 0 -- -- 88
2019-10-02 18:00:00 16.4 15 Oeste 26 Oeste 0 -- -- 82
2019-10-02 17:00:00 19.6 17 Noroeste 27 Noroeste 0 -- -- 69
2019-10-02 16:00:00 18.7 18 Norte 35 Norte 0 -- -- 70
2019-10-02 15:00:00 18.8 21 Noroeste 31 Norte 0 -- -- 68
2019-10-02 14:00:00 17.2 21 Norte 31 Norte 0 -- -- 73
2019-10-02 13:00:00 16.9 14 Norte 29 Norte 0 -- -- 76
2019-10-02 12:00:00 15.1 19 Noroeste 28 Noroeste 0 -- -- 79
2019-10-02 11:00:00 13.7 12 Norte 24 Norte 0 -- -- 97
2019-10-02 10:00:00 12.3 8 Noroeste 27 Noroeste 0 -- -- 100
2019-10-02 09:00:00 11.6 17 Noroeste 28 Noroeste 0 -- -- 98
2019-10-02 08:00:00 12.4 18 Noroeste 40 Noroeste 0 -- -- 90
2019-10-02 07:00:00 13.8 22 Noroeste 39 Noroeste 0 -- -- 76
2019-10-02 06:00:00 14.1 30 Noroeste 41 Noroeste 0 -- -- 73
2019-10-02 05:00:00 14.4 27 Noroeste 36 Noroeste 0 -- -- 73
2019-10-02 04:00:00 14.3 22 Noroeste 36 Noroeste 0 -- -- 72
2019-10-02 03:00:00 14.8 23 Noroeste 37 Noroeste 0 -- -- 71
2019-10-02 02:00:00 14.4 17 Noroeste 31 Noroeste 0 -- -- 76
2019-10-02 01:00:00 14.1 24 Noroeste 37 Noroeste 0 -- -- 88
2019-10-02 00:00:00 14.2 15 Noroeste 31 Oeste 0 -- -- 93
2019-10-01 23:00:00 14.8 20 Oeste 30 Oeste 0 -- -- 91
2019-10-01 22:00:00 15.2 19 Noroeste 27 Noroeste 0 -- -- 90
2019-10-01 21:00:00 15.6 16 Noroeste 23 Noroeste 0 -- -- 89
2019-10-01 20:00:00 16 14 Noroeste 30 Norte 0 -- -- 88
2019-10-01 19:00:00 16.6 12 Noroeste 21 Noroeste 0 -- -- 86
2019-10-01 18:00:00 17.1 10 Noroeste 32 Norte 0 -- -- 84
2019-10-01 17:00:00 17.8 21 Oeste 28 Oeste 0 -- -- 82
2019-10-01 16:00:00 21.6 15 Oeste 26 Oeste 0 -- -- 73
2019-10-01 15:00:00 21.7 12 Noroeste 31 Noroeste 0 -- -- 73
2019-10-01 14:00:00 21 25 Oeste 39 Oeste 0 -- -- 67
2019-10-01 13:00:00 20.1 26 Oeste 38 Oeste 0 -- -- 71
2019-10-01 12:00:00 19.8 19 Noroeste 31 Noroeste 0 -- -- 78
2019-10-01 11:00:00 17.6 17 Noroeste 26 Noroeste 0 -- -- 90
2019-10-01 10:00:00 16.4 8 Oeste 12 Oeste 0 -- -- 100
2019-10-01 09:00:00 15.5 5 Sudoeste 9 Oeste 0 -- -- 100
2019-10-01 08:00:00 15.2 5 Oeste 8 Oeste 0 -- -- 100
2019-10-01 07:00:00 15.4 2 Noroeste 6 Sudeste 0 -- -- 100
2019-10-01 06:00:00 15.8 3 Oeste 16 Norte 0 -- -- 100
2019-10-01 05:00:00 15.7 14 Noroeste 28 Noroeste 0 -- -- 100
2019-10-01 04:00:00 15.6 10 Noroeste 15 Noroeste 0 -- -- 98
2019-10-01 03:00:00 15.7 4 Oeste 14 Sudeste 0 -- -- 98
2019-10-01 02:00:00 16 10 Sudeste 12 Sudeste 0 -- -- 97
2019-10-01 01:00:00 16.4 3 Sur 15 Sudeste 0 -- -- 96
2019-10-01 00:00:00 17 10 Sudeste 13 Sudeste 0 -- -- 93
2019-09-30 23:00:00 17.6 5 Sudeste 12 Sudeste 0 -- -- 90
2019-09-30 22:00:00 18.5 8 Sudeste 12 Este 0 -- -- 86
2019-09-30 21:00:00 19 2 Sudoeste 9 Sudoeste 0 -- -- 86
2019-09-30 20:00:00 20.2 8 Sudoeste 14 Sudoeste 0 -- -- 81
2019-09-30 19:00:00 22.4 12 Sudoeste 21 Oeste 0 -- -- 75
2019-09-30 18:00:00 26 5 Oeste 17 Oeste 0 -- -- 63
2019-09-30 17:00:00 25.8 8 Sur 21 Este 0 -- -- 64
2019-09-30 16:00:00 25.5 13 Este 21 Sudeste 0 -- -- 63
2019-09-30 15:00:00 25.9 10 Sudeste 18 Sudeste 0 -- -- 61
2019-09-30 14:00:00 25.6 12 Sudeste 19 Sur 0 -- -- 62
2019-09-30 13:00:00 23.9 5 Sudeste 10 Sudeste 0 -- -- 69
2019-09-30 12:00:00 21.6 3 Sur 11 Sudeste 0 -- -- 71
2019-09-30 11:00:00 17.7 5 Sudeste 14 Sudeste 0 -- -- 88
2019-09-30 10:00:00 14.9 4 Sudeste 10 Sur 0 -- -- 100
2019-09-30 09:00:00 13.9 0 Calma 6 Nordeste 0 -- -- 100
2019-09-30 08:00:00 14.1 2 Nordeste 6 Nordeste 0 -- -- 100
2019-09-30 07:00:00 14.6 0 Calma 5 Nordeste 0 -- -- 100
2019-09-30 06:00:00 15 2 Este 11 Sudeste 0 -- -- 100
2019-09-30 05:00:00 15.4 8 Sudeste 11 Este 0 -- -- 100
2019-09-30 04:00:00 15.8 9 Sudeste 12 Sudeste 0 -- -- 100
2019-09-30 03:00:00 15.9 0 Calma 7 Sudeste 0 -- -- 100
2019-09-30 02:00:00 15.9 6 Sudeste 15 Este 0 -- -- 99
2019-09-30 01:00:00 16.4 11 Sudeste 16 Sudeste 0 -- -- 97
2019-09-30 00:00:00 17.1 12 Sudeste 16 Sudeste 0 -- -- 95
2019-09-29 23:00:00 17.2 5 Sudeste 13 Este 0 -- -- 93
2019-09-29 22:00:00 17.4 5 Sur 12 Sudoeste 0 -- -- 95
2019-09-29 21:00:00 17.4 12 Sudoeste 22 Sudoeste 0 -- -- 94
2019-09-29 20:00:00 18.7 17 Oeste 23 Oeste 0 -- -- 84
2019-09-29 19:00:00 22.4 13 Oeste 18 Oeste 0 -- -- 68
2019-09-29 18:00:00 24 4 Noroeste 18 Norte 0 -- -- 62
2019-09-29 17:00:00 23.2 14 Norte 26 Noroeste 0 -- -- 65
2019-09-29 16:00:00 25.6 13 Noroeste 24 Noroeste 0 -- -- 51
2019-09-29 15:00:00 25.1 9 Noroeste 27 Norte 0 -- -- 48
2019-09-29 14:00:00 25.4 2 Nordeste 12 Sudeste 0 -- -- 47
2019-09-29 13:00:00 24.9 5 Sudeste 9 Sudeste 0 -- -- 52
2019-09-29 12:00:00 21.6 3 Noroeste 10 Oeste 0 -- -- 57
2019-09-29 11:00:00 18.7 5 Oeste 10 Sudoeste 0 -- -- 62
2019-09-29 10:00:00 15.7 0 Calma 5 Sudoeste 0 -- -- 61
2019-09-29 09:00:00 13.8 4 Noroeste 8 Nordeste 0 -- -- 65
2019-09-29 08:00:00 12.5 3 Este 9 Sur 0 -- -- 81
2019-09-29 07:00:00 12.4 5 Este 9 Sudeste 0 -- -- 84
2019-09-29 06:00:00 13 7 Este 9 Este 0 -- -- 86
2019-09-29 05:00:00 13.1 3 Sudoeste 6 Sudoeste 0 -- -- 87
2019-09-29 04:00:00 13.2 0 Calma 5 Oeste 0 -- -- 96
2019-09-29 03:00:00 13.1 2 Sur 9 Sudoeste 0 -- -- 97
2019-09-29 02:00:00 13.7 4 Noroeste 10 Sudoeste 0 -- -- 99
2019-09-29 01:00:00 13.7 0 Calma 5 Oeste 0 -- -- 99
2019-09-29 00:00:00 14 2 Oeste 6 Sudoeste 0 -- -- 99
2019-09-28 23:00:00 14.2 0 Calma 8 Este 0 -- -- 98
2019-09-28 22:00:00 14.6 7 Sudeste 9 Sudeste 0 -- -- 95
2019-09-28 21:00:00 15.6 9 Sudeste 17 Sudeste 0 -- -- 93
2019-09-28 20:00:00 17.3 16 Sudeste 18 Sudeste 0 -- -- 87
2019-09-28 19:00:00 19.9 12 Sudeste 15 Sudeste 0 -- -- 77
2019-09-28 18:00:00 21.9 7 Sur 15 Sudeste 0 -- -- 71
2019-09-28 17:00:00 21.9 12 Sudeste 15 Sudeste 0 -- -- 71
2019-09-28 16:00:00 22.5 5 Sudeste 15 Sudeste 0 -- -- 69
2019-09-28 15:00:00 21.9 6 Sur 14 Este 0 -- -- 69
2019-09-28 14:00:00 21.7 5 Sudeste 14 Sudeste 0 -- -- 70
2019-09-28 13:00:00 20.2 8 Sudeste 17 Este 0 -- -- 73
2019-09-28 12:00:00 18.5 6 Sudeste 13 Este 0 -- -- 79
2019-09-28 11:00:00 16 2 Sudoeste 12 Sudoeste 0 -- -- 93
2019-09-28 10:00:00 14.7 2 Norte 5 Sudeste 0 -- -- 100
2019-09-28 09:00:00 13.1 5 Sudeste 7 Sudeste 0 -- -- 100
2019-09-28 08:00:00 13 5 Sudeste 6 Sudeste 0 -- -- 100
2019-09-28 07:00:00 13.1 2 Norte 3 Oeste 0 -- -- 100
2019-09-28 06:00:00 13 2 Oeste 4 Sudoeste 0 -- -- 100
2019-09-28 05:00:00 13.2 3 Oeste 5 Sur 0 -- -- 100
2019-09-28 04:00:00 13.2 4 Sur 6 Sudeste 0 -- -- 99
2019-09-28 03:00:00 13.3 0 Calma 5 Sudoeste 0 -- -- 99
2019-09-28 02:00:00 13.3 3 Oeste 6 Sudeste 0 -- -- 98
2019-09-28 01:00:00 13.3 4 Sudeste 8 Sudeste 0 -- -- 97
2019-09-28 00:00:00 13.5 4 Sudeste 6 Sudeste 0 -- -- 94
2019-09-27 23:00:00 13.5 0 Calma 4 Noroeste 0 -- -- 93
2019-09-27 22:00:00 13.5 0 Calma 4 Noroeste 0 -- -- 95
2019-09-27 21:00:00 13.4 3 Norte 18 Oeste 0 -- -- 98
2019-09-27 20:00:00 13.4 14 Oeste 24 Oeste 0.2 -- -- 100
2019-09-27 19:00:00 13.9 17 Noroeste 23 Oeste 0.6 -- -- 100
2019-09-27 18:00:00 14.4 18 Oeste 23 Oeste 0 -- -- 98
2019-09-27 17:00:00 15.9 15 Noroeste 30 Oeste 0 -- -- 96
2019-09-27 16:00:00 17.8 23 Oeste 34 Oeste 0 -- -- 87
2019-09-27 15:00:00 20.6 21 Oeste 30 Oeste 0 -- -- 79
2019-09-27 14:00:00 23.1 8 Este 14 Norte 0 -- -- 71
2019-09-27 13:00:00 22.6 5 Sudeste 12 Este 0 -- -- 71
2019-09-27 12:00:00 20.2 6 Sudeste 13 Este 0 -- -- 79
2019-09-27 11:00:00 16.5 6 Oeste 13 Oeste 0 -- -- 88
2019-09-27 10:00:00 15.7 7 Noroeste 23 Oeste 0 -- -- 88
2019-09-27 09:00:00 14.6 12 Oeste 18 Oeste 0 -- -- 93
2019-09-27 08:00:00 12.7 7 Sudoeste 14 Sudeste 0 -- -- 100
2019-09-27 07:00:00 12.7 4 Nordeste 8 Este 0 -- -- 100
2019-09-27 06:00:00 13 3 Oeste 10 Este 0 -- -- 100
2019-09-27 05:00:00 13.3 2 Sudeste 7 Este 0 -- -- 100
2019-09-27 04:00:00 13.5 0 Calma 5 Oeste 0 -- -- 100
2019-09-27 03:00:00 13.8 4 Sur 7 Oeste 0 -- -- 99
2019-09-27 02:00:00 14.3 4 Noroeste 7 Oeste 0 -- -- 98
2019-09-27 01:00:00 14.4 6 Noroeste 9 Sudeste 0 -- -- 96
2019-09-27 00:00:00 15 8 Sudeste 10 Sudeste 0 -- -- 94
2019-09-26 23:00:00 15.4 0 Calma 14 Sudeste 0 -- -- 93
2019-09-26 22:00:00 15.7 8 Sudeste 10 Sudeste 0 -- -- 93
2019-09-26 21:00:00 15.9 4 Sudoeste 15 Sudoeste 0 -- -- 91
2019-09-26 20:00:00 16.7 11 Sudoeste 18 Oeste 0 -- -- 88
2019-09-26 19:00:00 21.2 9 Oeste 15 Oeste 0 -- -- 75
2019-09-26 18:00:00 22.4 7 Sur 16 Sudeste 0 -- -- 72
2019-09-26 17:00:00 22.9 5 Sur 10 Sudoeste 0 -- -- 69
2019-09-26 16:00:00 22.6 5 Sudoeste 10 Oeste 0 -- -- 71
2019-09-26 15:00:00 22.1 5 Nordeste 11 Este 0 -- -- 69
2019-09-26 14:00:00 21.8 5 Sudeste 12 Sudeste 0 -- -- 68
2019-09-26 13:00:00 20.9 6 Sudeste 13 Sudeste 0 -- -- 73
2019-09-26 12:00:00 18.1 8 Sudeste 15 Sudeste 0 -- -- 85
2019-09-26 11:00:00 15.3 4 Sur 9 Sudeste 0.2 -- -- 100
2019-09-26 10:00:00 13.7 0 Calma 5 Sudoeste 0 -- -- 100
2019-09-26 09:00:00 12.2 3 Sudoeste 8 Sudeste 0 -- -- 100
2019-09-26 08:00:00 12.2 4 Sudeste 6 Sudeste 0 -- -- 100
2019-09-26 07:00:00 12.2 2 Sudoeste 6 Oeste 0 -- -- 100
2019-09-26 06:00:00 11.9 3 Sudoeste 6 Este 0 -- -- 100
2019-09-26 05:00:00 12.4 0 Calma 5 Sudeste 0 -- -- 100
2019-09-26 04:00:00 12.7 3 Sudeste 5 Sudeste 0 -- -- 100
2019-09-26 03:00:00 12.8 4 Oeste 8 Oeste 0 -- -- 99
2019-09-26 02:00:00 13.3 4 Sudeste 10 Sudeste 0 -- -- 99
2019-09-26 01:00:00 13.7 3 Este 5 Este 0 -- -- 96
2019-09-26 00:00:00 14 3 Sudeste 8 Este 0 -- -- 95
2019-09-25 23:00:00 14.7 3 Este 8 Sudoeste 0 -- -- 92
2019-09-25 22:00:00 15.1 8 Este 12 Este 0 -- -- 91
2019-09-25 21:00:00 15.5 6 Sudeste 9 Sudoeste 0 -- -- 89
2019-09-25 20:00:00 16.1 5 Sudoeste 15 Sudoeste 0 -- -- 85
2019-09-25 19:00:00 17.7 4 Sudoeste 12 Oeste 0 -- -- 82
2019-09-25 18:00:00 18.3 9 Oeste 12 Oeste 0 -- -- 78
2019-09-25 17:00:00 19.1 3 Oeste 11 Noroeste 0 -- -- 71
2019-09-25 16:00:00 19.4 10 Noroeste 18 Noroeste 0 -- -- 70
2019-09-25 15:00:00 19.7 8 Noroeste 22 Norte 0 -- -- 70
2019-09-25 14:00:00 18.9 13 Noroeste 26 Noroeste 0 -- -- 66
2019-09-25 13:00:00 19.2 14 Oeste 31 Noroeste 0 -- -- 66
2019-09-25 12:00:00 18.7 7 Noroeste 17 Noroeste 0 -- -- 68
2019-09-25 11:00:00 16.5 4 Sudoeste 10 Noroeste 0 -- -- 73
2019-09-25 10:00:00 14.2 5 Noroeste 13 Oeste 0 -- -- 78
2019-09-25 09:00:00 13.5 5 Oeste 13 Noroeste 0 -- -- 81
2019-09-25 08:00:00 12.9 6 Noroeste 17 Noroeste 0 -- -- 83
2019-09-25 07:00:00 12 11 Oeste 22 Noroeste 0 -- -- 90
2019-09-25 06:00:00 12.4 12 Oeste 18 Oeste 0 -- -- 90
2019-09-25 05:00:00 12.4 4 Norte 15 Noroeste 0 -- -- 93
2019-09-25 04:00:00 12.2 5 Oeste 8 Sudoeste 0 -- -- 98
2019-09-25 03:00:00 12.4 3 Oeste 6 Sudoeste 0 -- -- 100
2019-09-25 02:00:00 12.6 4 Oeste 8 Sudoeste 0 -- -- 100
2019-09-25 01:00:00 13 5 Oeste 8 Oeste 0 -- -- 100
2019-09-25 00:00:00 13.3 0 Calma 4 Sudoeste 0 -- -- 100
2019-09-24 23:00:00 13.4 0 Calma 5 Este 0 -- -- 100
2019-09-24 22:00:00 13.4 0 Calma 6 Sudoeste 1.4 -- -- 100
2019-09-24 21:00:00 13.7 3 Oeste 9 Sudoeste 0 -- -- 100
2019-09-24 20:00:00 13.7 8 Sudoeste 15 Sudoeste 0.6 -- -- 100
2019-09-24 19:00:00 14.2 8 Sudoeste 14 Oeste 0.4 -- -- 100
2019-09-24 18:00:00 14.6 12 Oeste 21 Sudoeste 1.4 -- -- 99
2019-09-24 17:00:00 16.1 7 Noroeste 15 Noroeste 0.2 -- -- 98
2019-09-24 16:00:00 16.7 9 Oeste 18 Oeste 0 -- -- 94
2019-09-24 15:00:00 16.2 9 Sudoeste 16 Oeste 0 -- -- 98
2019-09-24 14:00:00 16.3 12 Oeste 23 Norte 0 -- -- 94
2019-09-24 13:00:00 17.3 15 Oeste 24 Oeste 0 -- -- 92
2019-09-24 12:00:00 18.4 12 Oeste 22 Oeste 0 -- -- 89
2019-09-24 11:00:00 17.8 13 Sudoeste 28 Oeste 0 -- -- 95
2019-09-24 10:00:00 17.1 8 Oeste 12 Oeste 0 -- -- 94
2019-09-24 09:00:00 16.7 5 Sur 18 Este 0 -- -- 94
2019-09-24 08:00:00 16.9 4 Sudoeste 9 Sudeste 0 -- -- 91
2019-09-24 07:00:00 17.4 8 Sudeste 23 Oeste 0.4 -- -- 87
2019-09-24 06:00:00 19 17 Oeste 30 Oeste 0.2 -- -- 75
2019-09-24 05:00:00 21.8 6 Oeste 30 Oeste 0 -- -- 58
2019-09-24 04:00:00 22.3 21 Sudoeste 56 Sudoeste 0 -- -- 55
2019-09-24 03:00:00 20.8 19 Sudoeste 36 Sudoeste 0 -- -- 62
2019-09-24 02:00:00 16.6 8 Este 15 Nordeste 0 -- -- 89
2019-09-24 01:00:00 15.6 7 Oeste 18 Sudeste 0 -- -- 96
2019-09-24 00:00:00 15.3 4 Sudeste 17 Este 0 -- -- 96
2019-09-23 23:00:00 15.6 13 Sudeste 23 Este 0 -- -- 95
2019-09-23 22:00:00 15.2 16 Sudeste 26 Sudeste 0.2 -- -- 97
2019-09-23 21:00:00 15.2 6 Este 12 Este 0 -- -- 94
2019-09-23 20:00:00 15.8 5 Sudeste 17 Este 0.2 -- -- 87
2019-09-23 19:00:00 17.3 10 Sudeste 18 Sudeste 0.2 -- -- 83
2019-09-23 18:00:00 18.8 4 Sudeste 8 Sudeste 0 -- -- 83
2019-09-23 17:00:00 19.1 5 Sur 9 Sudoeste 0 -- -- 81
2019-09-23 16:00:00 20.5 3 Oeste 7 Noroeste 0 -- -- 74
2019-09-23 15:00:00 21.3 3 Sur 9 Este 0 -- -- 66
2019-09-23 14:00:00 21.2 3 Este 11 Oeste 0 -- -- 76
2019-09-23 13:00:00 19.4 4 Noroeste 9 Sur 0 -- -- 75
2019-09-23 12:00:00 16.6 4 Sudeste 10 Sur 0 -- -- 88
2019-09-23 11:00:00 15 3 Norte 11 Oeste 0 -- -- 98
2019-09-23 10:00:00 12.6 5 Oeste 16 Sudeste 0 -- -- 100
2019-09-23 09:00:00 11.7 7 Sudeste 13 Sudeste 0.2 -- -- 100
2019-09-23 08:00:00 11.5 0 Calma 5 Sudeste 0 -- -- 100
2019-09-23 07:00:00 11.7 0 Calma 4 Este 0 -- -- 100
2019-09-23 06:00:00 11.6 0 Calma 4 Este 0 -- -- 100
2019-09-23 05:00:00 11.6 3 Este 4 Nordeste 0 -- -- 100
2019-09-23 04:00:00 11.6 3 Nordeste 6 Sudoeste 0 -- -- 100
2019-09-23 03:00:00 11.7 3 Sudeste 9 Este 0 -- -- 98
2019-09-23 02:00:00 12.4 3 Este 4 Este 0 -- -- 96
2019-09-23 01:00:00 12.9 2 Sudoeste 5 Oeste 0 -- -- 95
2019-09-23 00:00:00 13 0 Calma 10 Este 0 -- -- 94
2019-09-22 23:00:00 13.4 8 Este 21 Sudeste 0 -- -- 95
2019-09-22 22:00:00 14 7 Sudeste 16 Este 0 -- -- 91
2019-09-22 21:00:00 15.1 5 Sur 10 Oeste 0 -- -- 82
2019-09-22 20:00:00 15.9 11 Sudoeste 22 Oeste 0 -- -- 75
2019-09-22 19:00:00 17.6 14 Sudoeste 22 Oeste 0 -- -- 70
2019-09-22 18:00:00 20.6 9 Sudeste 14 Sudeste 0 -- -- 67
2019-09-22 17:00:00 17.9 8 Sudoeste 21 Oeste 0 -- -- 79
2019-09-22 16:00:00 19.3 15 Noroeste 23 Noroeste 0 -- -- 75
2019-09-22 15:00:00 20.3 10 Sudoeste 18 Oeste 0 -- -- 72
2019-09-22 14:00:00 21.2 6 Noroeste 14 Noroeste 0 -- -- 69
2019-09-22 13:00:00 20.2 3 Sur 10 Sudeste 0 -- -- 76
2019-09-22 12:00:00 17.7 2 Sudeste 7 Este 0 -- -- 100
2019-09-22 11:00:00 14.8 3 Sudeste 10 Sudoeste 0 -- -- 100
2019-09-22 10:00:00 12.9 6 Sudoeste 10 Oeste 0 -- -- 100
2019-09-22 09:00:00 12.4 3 Oeste 8 Sudoeste 0 -- -- 100
2019-09-22 08:00:00 12.3 3 Este 5 Sudeste 0 -- -- 100
2019-09-22 07:00:00 12.6 5 Nordeste 9 Sudeste 0.2 -- -- 100
2019-09-22 06:00:00 12.9 6 Sudeste 12 Sudeste 0 -- -- 100
2019-09-22 05:00:00 13 11 Sudeste 15 Sudeste 0 -- -- 100
2019-09-22 04:00:00 13.2 7 Sudeste 25 Sudeste 0 -- -- 100
2019-09-22 03:00:00 13.5 16 Sudeste 23 Sudeste 0.8 -- -- 100
2019-09-22 02:00:00 13.2 12 Oeste 32 Oeste 2.2 -- -- 98
2019-09-22 01:00:00 14.8 14 Sudoeste 32 Sudoeste 0 -- -- 97
2019-09-22 00:00:00 16 27 Oeste 42 Oeste 0 -- -- 92
2019-09-21 23:00:00 22.1 23 Oeste 54 Sudoeste 0 -- -- 62
2019-09-21 22:00:00 23 45 Sudoeste 73 Sudoeste 0 -- -- 56
2019-09-21 21:00:00 21.1 13 Sudeste 57 Oeste 0 -- -- 63
2019-09-21 20:00:00 21.4 9 Oeste 23 Sudoeste 0 -- -- 64
2019-09-21 19:00:00 22.4 10 Sur 50 Oeste 0 -- -- 61
2019-09-21 18:00:00 23.5 12 Sudeste 45 Sudoeste 0 -- -- 65
2019-09-21 17:00:00 24.7 18 Sudoeste 42 Sudoeste 0 -- -- 52
2019-09-21 16:00:00 23.2 26 Sudoeste 63 Sur 0 -- -- 57
2019-09-21 15:00:00 22.9 36 Sudoeste 77 Sudoeste 0 -- -- 53
2019-09-21 14:00:00 22.1 16 Sur 74 Sudoeste 0 -- -- 56
2019-09-21 13:00:00 21.8 27 Sudoeste 66 Sudoeste 0 -- -- 54
2019-09-21 12:00:00 22.3 12 Noroeste 32 Oeste 0 -- -- 58
2019-09-21 11:00:00 20.6 6 Noroeste 51 Sudoeste 0 -- -- 69
2019-09-21 10:00:00 17.1 10 Sudoeste 47 Sur 0.2 -- -- 96
2019-09-21 09:00:00 15.3 11 Sudeste 21 Este 0 -- -- 100
2019-09-21 08:00:00 15 10 Sudeste 17 Este 0 -- -- 100
2019-09-21 07:00:00 15 8 Sudoeste 16 Sudeste 0 -- -- 100
2019-09-21 06:00:00 15 5 Sudoeste 13 Sudoeste 0 -- -- 100
2019-09-21 05:00:00 14.8 4 Oeste 15 Sudeste 0 -- -- 100
2019-09-21 04:00:00 14.9 9 Noroeste 21 Nordeste 0 -- -- 100
2019-09-21 03:00:00 15 7 Oeste 24 Sudoeste 0 -- -- 100
2019-09-21 02:00:00 15.3 6 Este 22 Sudeste 0 -- -- 99
2019-09-21 01:00:00 15.8 14 Sudeste 20 Sudeste 0 -- -- 98
2019-09-21 00:00:00 16.4 14 Oeste 27 Oeste 0 -- -- 97
2019-09-20 23:00:00 18.9 14 Oeste 19 Noroeste 0 -- -- 88
2019-09-20 22:00:00 21 6 Nordeste 18 Sudeste 0 -- -- 69
2019-09-20 21:00:00 21.5 12 Sudeste 27 Sudeste 0 -- -- 73
2019-09-20 20:00:00 22.7 18 Sudeste 25 Sudeste 0 -- -- 73
2019-09-20 19:00:00 24.5 14 Sudeste 22 Sudeste 0 -- -- 73
2019-09-20 18:00:00 24.5 10 Sudeste 19 Sudeste 0 -- -- 72
2019-09-20 17:00:00 22.7 5 Sudeste 18 Sudoeste 1 -- -- 74
2019-09-20 16:00:00 23.5 12 Sur 26 Sur 1 -- -- 70
2019-09-20 15:00:00 26.6 0 Calma 2 Oeste 0 -- -- 55
2019-09-20 14:00:00 24.9 4 Oeste 8 Sudoeste 0 -- -- 66
2019-09-20 13:00:00 25.2 4 Oeste 7 Sudoeste 0 -- -- 65
2019-09-20 12:00:00 22.3 2 Sur 9 Sudoeste 0 -- -- 76
2019-09-20 11:00:00 18.7 4 Sudoeste 8 Sudoeste 0 -- -- 93
2019-09-20 10:00:00 15.5 4 Sudoeste 11 Sur 0 -- -- 100
2019-09-20 09:00:00 14.1 6 Sudeste 15 Sudeste 0 -- -- 100
2019-09-20 08:00:00 13.6 3 Este 15 Sur 0.2 -- -- 100
2019-09-20 07:00:00 14 3 Sur 5 Sur 0 -- -- 100
2019-09-20 06:00:00 14 3 Sur 6 Sur 0 -- -- 100
2019-09-20 05:00:00 14.1 3 Sudeste 5 Sudeste 0 -- -- 100
2019-09-20 04:00:00 14.3 0 Calma 4 Sudeste 0 -- -- 100
2019-09-20 03:00:00 14.3 2 Sudeste 5 Sudeste 0 -- -- 100
2019-09-20 02:00:00 14.2 3 Sudeste 9 Este 0 -- -- 100
2019-09-20 01:00:00 14.2 7 Sudeste 9 Este 0 -- -- 100
2019-09-20 00:00:00 14.7 8 Sudeste 11 Sudeste 0 -- -- 99
2019-09-19 23:00:00 15.3 4 Sur 8 Sudeste 0 -- -- 98
2019-09-19 22:00:00 15.8 8 Sudeste 19 Sudeste 0 -- -- 96
2019-09-19 21:00:00 16.5 15 Sudeste 23 Sudeste 0 -- -- 95
2019-09-19 20:00:00 17.4 12 Sudeste 18 Sudeste 0 -- -- 93
2019-09-19 19:00:00 18.4 12 Sudeste 20 Este 0 -- -- 90
2019-09-19 18:00:00 19.7 5 Sudeste 14 Sudeste 0 -- -- 86
2019-09-19 17:00:00 20.9 8 Sudoeste 14 Oeste 0 -- -- 82
2019-09-19 16:00:00 22 6 Oeste 13 Oeste 0 -- -- 78
2019-09-19 15:00:00 23.8 6 Noroeste 13 Oeste 0 -- -- 70
2019-09-19 14:00:00 23.1 4 Este 10 Sur 0 -- -- 66
2019-09-19 13:00:00 21.8 3 Sudeste 12 Este 0 -- -- 76
2019-09-19 12:00:00 19.2 3 Sudeste 8 Sur 0 -- -- 98
2019-09-19 11:00:00 16 2 Oeste 5 Este 0 -- -- 100
2019-09-19 10:00:00 15 0 Calma 4 Este 0 -- -- 100
2019-09-19 09:00:00 14.3 0 Calma 4 Sudoeste 0 -- -- 100
2019-09-19 08:00:00 14.3 2 Sudoeste 3 Sudoeste 0 -- -- 100
2019-09-19 07:00:00 14.7 0 Calma 5 Sudoeste 0 -- -- 100
2019-09-19 06:00:00 14.8 3 Sur 5 Sur 0 -- -- 100
2019-09-19 05:00:00 15.2 2 Sudeste 5 Sudoeste 0.2 -- -- 100
2019-09-19 04:00:00 15.7 3 Sudeste 9 Sudeste 0 -- -- 100
2019-09-19 03:00:00 16.1 7 Sudeste 13 Sudeste 0 -- -- 100
2019-09-19 02:00:00 16.3 8 Sudeste 14 Este 0 -- -- 100
2019-09-19 01:00:00 16.8 5 Sur 7 Sur 0 -- -- 100
2019-09-19 00:00:00 17 3 Oeste 5 Oeste 0 -- -- 100
2019-09-18 23:00:00 17.2 0 Calma 5 Sur 0 -- -- 99
2019-09-18 22:00:00 17.3 3 Sur 9 Sudeste 0 -- -- 98
2019-09-18 21:00:00 17.8 6 Sudeste 11 Sudeste 0 -- -- 97
2019-09-18 20:00:00 18.5 3 Sudoeste 10 Oeste 0 -- -- 95
2019-09-18 19:00:00 19.2 9 Oeste 13 Oeste 0 -- -- 92
2019-09-18 18:00:00 20.9 10 Oeste 16 Oeste 0 -- -- 86
2019-09-18 17:00:00 23.1 6 Oeste 15 Oeste 0 -- -- 83
2019-09-18 16:00:00 21.9 12 Oeste 22 Sudoeste 0 -- -- 83
2019-09-18 15:00:00 23.6 5 Sudoeste 11 Nordeste 0 -- -- 77
2019-09-18 14:00:00 23.6 3 Sudoeste 13 Norte 0 -- -- 74
2019-09-18 13:00:00 21.5 4 Sudoeste 10 Nordeste 0 -- -- 87
2019-09-18 12:00:00 19.6 3 Este 6 Sudeste 0 -- -- 100
2019-09-18 11:00:00 18.1 3 Norte 10 Oeste 0 -- -- 100
2019-09-18 10:00:00 17.2 3 Oeste 7 Oeste 0 -- -- 100
2019-09-18 09:00:00 16.9 3 Noroeste 6 Oeste 0.2 -- -- 100
2019-09-18 08:00:00 16.5 3 Oeste 10 Oeste 0 -- -- 100
2019-09-18 07:00:00 16.7 6 Sudoeste 10 Sudoeste 0 -- -- 100
2019-09-18 06:00:00 16.9 3 Este 8 Este 0 -- -- 100
2019-09-18 05:00:00 17 3 Sudeste 5 Oeste 0 -- -- 100
2019-09-18 04:00:00 17.3 0 Calma 4 Oeste 0 -- -- 100
2019-09-18 03:00:00 17.5 3 Oeste 5 Sudoeste 0 -- -- 100
2019-09-18 02:00:00 17.7 0 Calma 3 Noroeste 0 -- -- 100
2019-09-18 01:00:00 17.8 0 Calma 6 Sudoeste 0 -- -- 100
2019-09-18 00:00:00 17.9 6 Sudoeste 11 Oeste 0 -- -- 100
2019-09-17 23:00:00 18 7 Oeste 14 Noroeste 0 -- -- 100
2019-09-17 22:00:00 18.2 9 Noroeste 13 Noroeste 0 -- -- 100
2019-09-17 21:00:00 18.4 8 Oeste 13 Oeste 0 -- -- 98
2019-09-15 18:00:00 -- -- -- -- -- -- -- -- --
2019-09-15 17:00:00 -- -- -- -- -- -- -- -- --
2019-09-15 16:00:00 24.7 4 Sur 11 Noroeste 0 -- -- 68
2019-09-15 15:00:00 23 3 Sudeste 11 Sudeste 0 -- -- 79
2019-09-15 14:00:00 22.2 6 Oeste 13 Oeste 0 -- -- 79
2019-09-15 13:00:00 19.5 9 Noroeste 14 Noroeste 0 -- -- 100
2019-09-15 12:00:00 17.6 2 Sudoeste 10 Oeste 0 -- -- 100
2019-09-15 11:00:00 16.6 4 Oeste 8 Oeste 0 -- -- 100
2019-09-15 10:00:00 16.2 2 Oeste 9 Oeste 0 -- -- 100
2019-09-15 09:00:00 15.8 0 Calma 5 Este 0 -- -- 100
2019-09-15 08:00:00 15.7 0 Calma 5 Oeste 0 -- -- 100
2019-09-15 07:00:00 15.9 5 Oeste 14 Sudoeste 0 -- -- 100
2019-09-15 06:00:00 15.8 8 Oeste 10 Oeste 0 -- -- 100
2019-09-15 05:00:00 16 4 Sudoeste 7 Sudoeste 0 -- -- 100
2019-09-15 04:00:00 16.1 4 Nordeste 6 Sur 0 -- -- 100
2019-09-15 03:00:00 16.3 3 Oeste 9 Oeste 0 -- -- 100
2019-09-15 02:00:00 16.5 7 Oeste 8 Oeste 0 -- -- 100
2019-09-15 01:00:00 16.7 3 Sudoeste 10 Oeste 0 -- -- 100
2019-09-15 00:00:00 17.2 7 Oeste 9 Oeste 0 -- -- 99